sensor_id;sensor_type;location;lat;lon;timestamp;temperature;humidity
30250;DHT22;17064;47.974;13.826;2023-03-03T00:02:58;-0.90;99.90
30250;DHT22;17064;47.974;13.826;2023-03-03T00:08:00;-0.90;99.90
30250;DHT22;17064;47.974;13.826;2023-03-03T00:13:01;-1.00;99.90
30250;DHT22;17064;47.974;13.826;2023-03-03T00:28:31;-1.10;99.90
30250;DHT22;17064;47.974;13.826;2023-03-03T00:33:45;-1.10;99.90
30250;DHT22;17064;47.974;13.826;2023-03-03T00:38:47;-0.90;99.90
30250;DHT22;17064;47.974;13.826;2023-03-03T00:43:49;-0.80;99.90
30250;DHT22;17064;47.974;13.826;2023-03-03T00:48:51;-0.70;99.90
30250;DHT22;17064;47.974;13.826;2023-03-03T00:53:52;-0.70;99.90
30250;DHT22;17064;47.974;13.826;2023-03-03T00:58:53;-0.60;99.90
30250;DHT22;17064;47.974;13.826;2023-03-03T01:03:53;-0.30;99.90
30250;DHT22;17064;47.974;13.826;2023-03-03T01:08:54;-0.20;99.90
30250;DHT22;17064;47.974;13.826;2023-03-03T01:13:56;0.00;99.90
30250;DHT22;17064;47.974;13.826;2023-03-03T01:18:57;0.10;99.90
30250;DHT22;17064;47.974;13.826;2023-03-03T01:23:58;0.10;99.90
30250;DHT22;17064;47.974;13.826;2023-03-03T01:28:58;0.20;99.90
30250;DHT22;17064;47.974;13.826;2023-03-03T01:33:59;0.20;99.90
30250;DHT22;17064;47.974;13.826;2023-03-03T01:39:00;0.30;99.90
30250;DHT22;17064;47.974;13.826;2023-03-03T01:44:01;0.20;99.90
30250;DHT22;17064;47.974;13.826;2023-03-03T01:49:10;0.20;99.90
30250;DHT22;17064;47.974;13.826;2023-03-03T01:54:17;0.20;99.90
30250;DHT22;17064;47.974;13.826;2023-03-03T01:59:22;0.10;99.90
30250;DHT22;17064;47.974;13.826;2023-03-03T02:04:25;0.10;99.90
30250;DHT22;17064;47.974;13.826;2023-03-03T02:14:48;0.30;99.90
30250;DHT22;17064;47.974;13.826;2023-03-03T02:25:16;0.20;99.90
30250;DHT22;17064;47.974;13.826;2023-03-03T02:30:21;0.10;99.90
30250;DHT22;17064;47.974;13.826;2023-03-03T02:35:30;0.10;99.90
30250;DHT22;17064;47.974;13.826;2023-03-03T02:40:35;0.10;99.90
30250;DHT22;17064;47.974;13.826;2023-03-03T02:45:44;0.00;99.90
30250;DHT22;17064;47.974;13.826;2023-03-03T02:50:44;0.00;99.90
30250;DHT22;17064;47.974;13.826;2023-03-03T02:55:45;0.00;99.90
30250;DHT22;17064;47.974;13.826;2023-03-03T03:00:46;-0.10;99.90
30250;DHT22;17064;47.974;13.826;2023-03-03T03:05:47;-0.10;99.90
30250;DHT22;17064;47.974;13.826;2023-03-03T03:10:47;-0.30;99.90
30250;DHT22;17064;47.974;13.826;2023-03-03T03:15:48;-0.30;99.90
30250;DHT22;17064;47.974;13.826;2023-03-03T03:20:49;-0.40;99.90
30250;DHT22;17064;47.974;13.826;2023-03-03T03:25:50;-0.40;99.90
30250;DHT22;17064;47.974;13.826;2023-03-03T03:30:51;-0.40;99.90
30250;DHT22;17064;47.974;13.826;2023-03-03T03:35:51;-0.30;99.90
30250;DHT22;17064;47.974;13.826;2023-03-03T03:40:53;-0.20;99.90
30250;DHT22;17064;47.974;13.826;2023-03-03T03:45:54;-0.10;99.90
30250;DHT22;17064;47.974;13.826;2023-03-03T03:50:54;0.00;99.90
30250;DHT22;17064;47.974;13.826;2023-03-03T03:55:55;0.10;99.90
30250;DHT22;17064;47.974;13.826;2023-03-03T04:01:04;0.20;99.90
30250;DHT22;17064;47.974;13.826;2023-03-03T04:06:05;0.30;99.90
30250;DHT22;17064;47.974;13.826;2023-03-03T04:11:06;0.40;99.90
30250;DHT22;17064;47.974;13.826;2023-03-03T04:16:07;0.50;99.90
30250;DHT22;17064;47.974;13.826;2023-03-03T04:21:11;0.60;99.90
30250;DHT22;17064;47.974;13.826;2023-03-03T04:26:12;0.70;99.90
30250;DHT22;17064;47.974;13.826;2023-03-03T04:31:13;0.80;99.90
30250;DHT22;17064;47.974;13.826;2023-03-03T04:36:14;0.80;99.90
30250;DHT22;17064;47.974;13.826;2023-03-03T04:41:15;1.00;99.90
30250;DHT22;17064;47.974;13.826;2023-03-03T04:46:16;1.10;99.90
30250;DHT22;17064;47.974;13.826;2023-03-03T04:51:17;1.10;99.90
30250;DHT22;17064;47.974;13.826;2023-03-03T04:56:18;1.10;99.90
30250;DHT22;17064;47.974;13.826;2023-03-03T05:01:18;1.10;99.90
30250;DHT22;17064;47.974;13.826;2023-03-03T05:06:19;1.20;99.90
30250;DHT22;17064;47.974;13.826;2023-03-03T05:11:20;1.20;99.90
30250;DHT22;17064;47.974;13.826;2023-03-03T05:16:21;1.20;99.90
30250;DHT22;17064;47.974;13.826;2023-03-03T05:21:21;1.30;99.90
30250;DHT22;17064;47.974;13.826;2023-03-03T05:26:22;1.20;99.90
30250;DHT22;17064;47.974;13.826;2023-03-03T05:31:23;1.20;99.90
30250;DHT22;17064;47.974;13.826;2023-03-03T05:36:25;1.30;99.90
30250;DHT22;17064;47.974;13.826;2023-03-03T05:41:26;1.20;99.90
30250;DHT22;17064;47.974;13.826;2023-03-03T05:46:27;1.30;99.90
30250;DHT22;17064;47.974;13.826;2023-03-03T05:51:27;1.40;99.90
30250;DHT22;17064;47.974;13.826;2023-03-03T05:56:28;1.40;99.90
30250;DHT22;17064;47.974;13.826;2023-03-03T06:01:30;1.30;99.90
30250;DHT22;17064;47.974;13.826;2023-03-03T06:06:32;1.30;99.90
30250;DHT22;17064;47.974;13.826;2023-03-03T06:11:33;1.30;99.90
30250;DHT22;17064;47.974;13.826;2023-03-03T06:16:33;1.30;99.90
30250;DHT22;17064;47.974;13.826;2023-03-03T06:21:34;1.20;99.90
30250;DHT22;17064;47.974;13.826;2023-03-03T06:26:35;1.30;99.90
30250;DHT22;17064;47.974;13.826;2023-03-03T06:31:35;1.30;99.90
30250;DHT22;17064;47.974;13.826;2023-03-03T06:36:36;1.40;99.90
30250;DHT22;17064;47.974;13.826;2023-03-03T06:41:37;1.50;99.90
30250;DHT22;17064;47.974;13.826;2023-03-03T06:46:38;1.50;99.90
30250;DHT22;17064;47.974;13.826;2023-03-03T06:51:39;1.60;99.90
30250;DHT22;17064;47.974;13.826;2023-03-03T06:56:41;1.60;99.90
30250;DHT22;17064;47.974;13.826;2023-03-03T07:01:43;1.70;99.90
30250;DHT22;17064;47.974;13.826;2023-03-03T07:06:45;1.80;99.90
30250;DHT22;17064;47.974;13.826;2023-03-03T07:11:45;2.00;99.90
30250;DHT22;17064;47.974;13.826;2023-03-03T07:16:51;2.10;99.90
30250;DHT22;17064;47.974;13.826;2023-03-03T07:21:56;2.20;99.90
30250;DHT22;17064;47.974;13.826;2023-03-03T07:27:10;2.30;99.90
30250;DHT22;17064;47.974;13.826;2023-03-03T07:37:38;2.70;99.90
30250;DHT22;17064;47.974;13.826;2023-03-03T07:42:41;2.90;99.90
30250;DHT22;17064;47.974;13.826;2023-03-03T07:47:43;3.10;99.90
30250;DHT22;17064;47.974;13.826;2023-03-03T07:52:54;3.40;99.90
30250;DHT22;17064;47.974;13.826;2023-03-03T07:58:05;3.50;99.90
30250;DHT22;17064;47.974;13.826;2023-03-03T08:03:17;3.70;99.90
30250;DHT22;17064;47.974;13.826;2023-03-03T08:08:28;3.90;99.90
30250;DHT22;17064;47.974;13.826;2023-03-03T08:13:36;4.10;99.90
30250;DHT22;17064;47.974;13.826;2023-03-03T08:18:46;4.10;99.90
30250;DHT22;17064;47.974;13.826;2023-03-03T08:23:47;4.20;99.90
30250;DHT22;17064;47.974;13.826;2023-03-03T08:28:51;4.20;99.90
30250;DHT22;17064;47.974;13.826;2023-03-03T08:33:52;4.30;99.90
30250;DHT22;17064;47.974;13.826;2023-03-03T08:38:53;4.30;99.90
30250;DHT22;17064;47.974;13.826;2023-03-03T08:43:54;4.50;99.90
30250;DHT22;17064;47.974;13.826;2023-03-03T08:48:54;4.70;99.90
30250;DHT22;17064;47.974;13.826;2023-03-03T08:53:55;4.90;99.90
30250;DHT22;17064;47.974;13.826;2023-03-03T08:58:56;5.10;99.90
30250;DHT22;17064;47.974;13.826;2023-03-03T09:03:57;5.20;99.90
30250;DHT22;17064;47.974;13.826;2023-03-03T09:08:57;5.30;99.90
30250;DHT22;17064;47.974;13.826;2023-03-03T09:14:05;5.40;99.90
30250;DHT22;17064;47.974;13.826;2023-03-03T09:19:29;5.50;99.90
30250;DHT22;17064;47.974;13.826;2023-03-03T09:24:30;5.60;99.90
30250;DHT22;17064;47.974;13.826;2023-03-03T09:29:37;5.80;99.90
30250;DHT22;17064;47.974;13.826;2023-03-03T09:34:40;5.90;99.90
30250;DHT22;17064;47.974;13.826;2023-03-03T09:39:51;6.10;99.90
30250;DHT22;17064;47.974;13.826;2023-03-03T10:06:47;6.50;99.90
30250;DHT22;17064;47.974;13.826;2023-03-03T10:17:18;6.60;99.90
30250;DHT22;17064;47.974;13.826;2023-03-03T10:49:31;7.90;99.90
30250;DHT22;17064;47.974;13.826;2023-03-03T10:55:02;8.20;99.90
30250;DHT22;17064;47.974;13.826;2023-03-03T11:37:20;9.80;99.90
30250;DHT22;17064;47.974;13.826;2023-03-03T11:47:58;9.80;99.90
30250;DHT22;17064;47.974;13.826;2023-03-03T11:58:33;10.20;99.20
30250;DHT22;17064;47.974;13.826;2023-03-03T12:03:57;10.50;98.70
30250;DHT22;17064;47.974;13.826;2023-03-03T12:09:12;10.50;97.30
30250;DHT22;17064;47.974;13.826;2023-03-03T12:19:46;11.20;97.00
30250;DHT22;17064;47.974;13.826;2023-03-03T12:56:52;12.60;90.00
30250;DHT22;17064;47.974;13.826;2023-03-03T13:07:12;13.10;85.60
30250;DHT22;17064;47.974;13.826;2023-03-03T13:23:48;12.70;82.30
30250;DHT22;17064;47.974;13.826;2023-03-03T13:33:58;12.50;83.40
30250;DHT22;17064;47.974;13.826;2023-03-03T13:39:18;12.90;79.60
30250;DHT22;17064;47.974;13.826;2023-03-03T13:55:27;13.80;80.10
30250;DHT22;17064;47.974;13.826;2023-03-03T14:00:51;12.90;78.10
30250;DHT22;17064;47.974;13.826;2023-03-03T14:06:03;11.90;81.60
30250;DHT22;17064;47.974;13.826;2023-03-03T14:11:31;11.40;82.40
30250;DHT22;17064;47.974;13.826;2023-03-03T14:21:56;11.20;86.40
30250;DHT22;17064;47.974;13.826;2023-03-03T14:27:26;11.70;82.50
30250;DHT22;17064;47.974;13.826;2023-03-03T14:32:28;11.20;83.60
30250;DHT22;17064;47.974;13.826;2023-03-03T14:37:42;10.70;87.30
30250;DHT22;17064;47.974;13.826;2023-03-03T14:47:52;10.20;90.70
30250;DHT22;17064;47.974;13.826;2023-03-03T14:53:10;10.00;90.70
30250;DHT22;17064;47.974;13.826;2023-03-03T14:58:25;9.70;90.50
30250;DHT22;17064;47.974;13.826;2023-03-03T15:03:27;9.40;91.90
30250;DHT22;17064;47.974;13.826;2023-03-03T15:08:34;9.20;92.50
30250;DHT22;17064;47.974;13.826;2023-03-03T15:13:35;8.90;93.30
30250;DHT22;17064;47.974;13.826;2023-03-03T15:24:39;8.30;95.10
30250;DHT22;17064;47.974;13.826;2023-03-03T15:40:28;8.00;99.30
30250;DHT22;17064;47.974;13.826;2023-03-03T15:45:39;7.90;99.90
30250;DHT22;17064;47.974;13.826;2023-03-03T15:56:19;7.70;99.90
30250;DHT22;17064;47.974;13.826;2023-03-03T16:01:34;7.60;99.90
30250;DHT22;17064;47.974;13.826;2023-03-03T16:06:59;7.50;99.90
30250;DHT22;17064;47.974;13.826;2023-03-03T16:12:26;7.40;99.90
30250;DHT22;17064;47.974;13.826;2023-03-03T16:17:50;7.30;99.90
30250;DHT22;17064;47.974;13.826;2023-03-03T16:28:08;6.90;99.90
30250;DHT22;17064;47.974;13.826;2023-03-03T16:33:22;6.70;99.90
30250;DHT22;17064;47.974;13.826;2023-03-03T16:43:53;6.40;99.90
30250;DHT22;17064;47.974;13.826;2023-03-03T16:59:54;5.80;99.90
30250;DHT22;17064;47.974;13.826;2023-03-03T17:16:01;5.20;99.90
30250;DHT22;17064;47.974;13.826;2023-03-03T17:26:55;4.90;99.90
30250;DHT22;17064;47.974;13.826;2023-03-03T17:37:33;4.50;99.90
30250;DHT22;17064;47.974;13.826;2023-03-03T18:20:31;3.10;99.90
30250;DHT22;17064;47.974;13.826;2023-03-03T18:25:57;2.90;99.90
30250;DHT22;17064;47.974;13.826;2023-03-03T18:31:00;2.80;99.90
30250;DHT22;17064;47.974;13.826;2023-03-03T18:41:34;2.50;99.90
30250;DHT22;17064;47.974;13.826;2023-03-03T18:46:57;2.50;99.90
30250;DHT22;17064;47.974;13.826;2023-03-03T18:52:27;2.60;99.90
30250;DHT22;17064;47.974;13.826;2023-03-03T18:57:30;2.50;99.90
30250;DHT22;17064;47.974;13.826;2023-03-03T19:02:36;2.50;99.90
30250;DHT22;17064;47.974;13.826;2023-03-03T19:08:01;2.50;99.90
30250;DHT22;17064;47.974;13.826;2023-03-03T19:24:00;2.50;99.90
30250;DHT22;17064;47.974;13.826;2023-03-03T19:29:41;2.40;99.90
30250;DHT22;17064;47.974;13.826;2023-03-03T19:46:06;2.30;99.90
30250;DHT22;17064;47.974;13.826;2023-03-03T19:51:39;2.40;99.90
30250;DHT22;17064;47.974;13.826;2023-03-03T19:56:51;2.50;99.90
30250;DHT22;17064;47.974;13.826;2023-03-03T20:19:09;2.90;99.90
30250;DHT22;17064;47.974;13.826;2023-03-03T20:24:39;2.90;99.90
30250;DHT22;17064;47.974;13.826;2023-03-03T20:40:33;2.80;99.90
30250;DHT22;17064;47.974;13.826;2023-03-03T20:45:52;2.70;99.90
30250;DHT22;17064;47.974;13.826;2023-03-03T21:02:21;2.80;99.90
30250;DHT22;17064;47.974;13.826;2023-03-03T21:07:25;2.80;99.90
30250;DHT22;17064;47.974;13.826;2023-03-03T21:12:30;2.70;99.90
30250;DHT22;17064;47.974;13.826;2023-03-03T21:17:32;2.60;99.90
30250;DHT22;17064;47.974;13.826;2023-03-03T21:22:33;2.50;99.90
30250;DHT22;17064;47.974;13.826;2023-03-03T21:27:35;2.50;99.90
30250;DHT22;17064;47.974;13.826;2023-03-03T21:32:44;2.40;99.90
30250;DHT22;17064;47.974;13.826;2023-03-03T21:37:55;2.30;99.90
30250;DHT22;17064;47.974;13.826;2023-03-03T21:42:58;2.20;99.90
30250;DHT22;17064;47.974;13.826;2023-03-03T21:47:59;2.20;99.90
30250;DHT22;17064;47.974;13.826;2023-03-03T21:53:03;2.10;99.90
30250;DHT22;17064;47.974;13.826;2023-03-03T21:58:04;2.10;99.90
30250;DHT22;17064;47.974;13.826;2023-03-03T22:03:04;2.10;99.90
30250;DHT22;17064;47.974;13.826;2023-03-03T22:08:05;2.10;99.90
30250;DHT22;17064;47.974;13.826;2023-03-03T22:13:06;2.00;99.90
30250;DHT22;17064;47.974;13.826;2023-03-03T22:18:07;1.90;99.90
30250;DHT22;17064;47.974;13.826;2023-03-03T22:23:08;1.90;99.90
30250;DHT22;17064;47.974;13.826;2023-03-03T22:28:08;1.80;99.90
30250;DHT22;17064;47.974;13.826;2023-03-03T22:33:09;1.70;99.90
30250;DHT22;17064;47.974;13.826;2023-03-03T22:38:10;1.70;99.90
30250;DHT22;17064;47.974;13.826;2023-03-03T22:43:11;1.60;99.90
30250;DHT22;17064;47.974;13.826;2023-03-03T22:48:14;1.50;99.90
30250;DHT22;17064;47.974;13.826;2023-03-03T22:53:14;1.50;99.90
30250;DHT22;17064;47.974;13.826;2023-03-03T22:58:15;1.50;99.90
30250;DHT22;17064;47.974;13.826;2023-03-03T23:03:18;1.40;99.90
30250;DHT22;17064;47.974;13.826;2023-03-03T23:08:22;1.50;99.90
30250;DHT22;17064;47.974;13.826;2023-03-03T23:13:23;1.40;99.90
30250;DHT22;17064;47.974;13.826;2023-03-03T23:18:26;1.40;99.90
30250;DHT22;17064;47.974;13.826;2023-03-03T23:23:28;1.50;99.90
30250;DHT22;17064;47.974;13.826;2023-03-03T23:28:29;1.50;99.90
30250;DHT22;17064;47.974;13.826;2023-03-03T23:33:30;1.60;99.90
30250;DHT22;17064;47.974;13.826;2023-03-03T23:38:31;1.60;99.90
30250;DHT22;17064;47.974;13.826;2023-03-03T23:43:32;1.70;99.90
30250;DHT22;17064;47.974;13.826;2023-03-03T23:48:33;1.60;99.90
30250;DHT22;17064;47.974;13.826;2023-03-03T23:53:33;1.70;99.90
30250;DHT22;17064;47.974;13.826;2023-03-03T23:58:34;1.70;99.90
